sensor_id;sensor_type;location;lat;lon;timestamp;temperature;humidity
54429;DHT22;40337;52.978;6.310;2023-10-19T00:00:35;8.70;99.90
54429;DHT22;40337;52.978;6.310;2023-10-19T00:03:06;8.60;99.90
54429;DHT22;40337;52.978;6.310;2023-10-19T00:05:32;8.60;99.90
54429;DHT22;40337;52.978;6.310;2023-10-19T00:07:59;8.70;99.90
54429;DHT22;40337;52.978;6.310;2023-10-19T00:10:27;8.70;99.90
54429;DHT22;40337;52.978;6.310;2023-10-19T00:12:58;8.70;99.90
54429;DHT22;40337;52.978;6.310;2023-10-19T00:15:37;8.70;99.90
54429;DHT22;40337;52.978;6.310;2023-10-19T00:18:06;8.70;99.90
54429;DHT22;40337;52.978;6.310;2023-10-19T00:20:42;8.60;99.90
54429;DHT22;40337;52.978;6.310;2023-10-19T00:23:11;8.60;99.90
54429;DHT22;40337;52.978;6.310;2023-10-19T00:25:39;8.60;99.90
54429;DHT22;40337;52.978;6.310;2023-10-19T00:28:07;8.60;99.90
54429;DHT22;40337;52.978;6.310;2023-10-19T00:30:33;8.60;99.90
54429;DHT22;40337;52.978;6.310;2023-10-19T00:33:04;8.70;99.90
54429;DHT22;40337;52.978;6.310;2023-10-19T00:35:34;8.70;99.90
54429;DHT22;40337;52.978;6.310;2023-10-19T00:38:01;8.70;99.90
54429;DHT22;40337;52.978;6.310;2023-10-19T00:40:51;8.60;99.90
54429;DHT22;40337;52.978;6.310;2023-10-19T00:43:31;8.70;99.90
54429;DHT22;40337;52.978;6.310;2023-10-19T00:46:09;8.60;99.90
54429;DHT22;40337;52.978;6.310;2023-10-19T00:48:56;8.70;99.90
54429;DHT22;40337;52.978;6.310;2023-10-19T00:51:52;8.70;99.90
54429;DHT22;40337;52.978;6.310;2023-10-19T00:54:33;8.60;99.90
54429;DHT22;40337;52.978;6.310;2023-10-19T00:57:06;8.70;99.90
54429;DHT22;40337;52.978;6.310;2023-10-19T00:59:40;8.70;99.90
54429;DHT22;40337;52.978;6.310;2023-10-19T01:02:09;8.60;99.90
54429;DHT22;40337;52.978;6.310;2023-10-19T01:04:55;8.60;99.90
54429;DHT22;40337;52.978;6.310;2023-10-19T01:07:29;8.60;99.90
54429;DHT22;40337;52.978;6.310;2023-10-19T01:10:00;8.70;99.90
54429;DHT22;40337;52.978;6.310;2023-10-19T01:12:28;8.70;99.90
54429;DHT22;40337;52.978;6.310;2023-10-19T01:15:10;8.70;99.90
54429;DHT22;40337;52.978;6.310;2023-10-19T01:17:45;8.70;99.90
54429;DHT22;40337;52.978;6.310;2023-10-19T01:20:17;8.70;99.90
54429;DHT22;40337;52.978;6.310;2023-10-19T01:23:01;8.70;99.90
54429;DHT22;40337;52.978;6.310;2023-10-19T01:28:07;8.70;99.90
54429;DHT22;40337;52.978;6.310;2023-10-19T01:30:34;8.70;99.90
54429;DHT22;40337;52.978;6.310;2023-10-19T01:33:02;8.70;99.90
54429;DHT22;40337;52.978;6.310;2023-10-19T01:35:29;8.70;99.90
54429;DHT22;40337;52.978;6.310;2023-10-19T01:38:14;8.70;99.90
54429;DHT22;40337;52.978;6.310;2023-10-19T01:40:40;8.70;99.90
54429;DHT22;40337;52.978;6.310;2023-10-19T01:43:12;8.70;99.90
54429;DHT22;40337;52.978;6.310;2023-10-19T01:45:46;8.70;99.90
54429;DHT22;40337;52.978;6.310;2023-10-19T01:48:12;8.70;99.90
54429;DHT22;40337;52.978;6.310;2023-10-19T01:50:39;8.70;99.90
54429;DHT22;40337;52.978;6.310;2023-10-19T01:53:05;8.70;99.90
54429;DHT22;40337;52.978;6.310;2023-10-19T01:55:44;8.70;99.90
54429;DHT22;40337;52.978;6.310;2023-10-19T01:58:12;8.80;99.90
54429;DHT22;40337;52.978;6.310;2023-10-19T02:00:40;8.70;99.90
54429;DHT22;40337;52.978;6.310;2023-10-19T02:03:08;8.70;99.90
54429;DHT22;40337;52.978;6.310;2023-10-19T02:05:34;8.70;99.90
54429;DHT22;40337;52.978;6.310;2023-10-19T02:08:08;8.80;99.90
54429;DHT22;40337;52.978;6.310;2023-10-19T02:10:34;8.80;99.90
54429;DHT22;40337;52.978;6.310;2023-10-19T02:13:01;8.80;99.90
54429;DHT22;40337;52.978;6.310;2023-10-19T02:15:34;8.80;99.90
54429;DHT22;40337;52.978;6.310;2023-10-19T02:18:02;8.80;99.90
54429;DHT22;40337;52.978;6.310;2023-10-19T02:20:28;8.80;99.90
54429;DHT22;40337;52.978;6.310;2023-10-19T02:22:55;8.80;99.90
54429;DHT22;40337;52.978;6.310;2023-10-19T02:25:25;8.80;99.90
54429;DHT22;40337;52.978;6.310;2023-10-19T02:27:54;8.80;99.90
54429;DHT22;40337;52.978;6.310;2023-10-19T02:30:19;8.80;99.90
54429;DHT22;40337;52.978;6.310;2023-10-19T02:32:45;8.80;99.90
54429;DHT22;40337;52.978;6.310;2023-10-19T02:35:13;8.80;99.90
54429;DHT22;40337;52.978;6.310;2023-10-19T02:37:39;8.80;99.90
54429;DHT22;40337;52.978;6.310;2023-10-19T02:40:05;8.90;99.90
54429;DHT22;40337;52.978;6.310;2023-10-19T02:42:40;8.80;99.90
54429;DHT22;40337;52.978;6.310;2023-10-19T02:45:07;8.80;99.90
54429;DHT22;40337;52.978;6.310;2023-10-19T02:47:33;8.80;99.90
54429;DHT22;40337;52.978;6.310;2023-10-19T02:49:58;8.80;99.90
54429;DHT22;40337;52.978;6.310;2023-10-19T02:52:24;8.80;99.90
54429;DHT22;40337;52.978;6.310;2023-10-19T02:54:50;8.80;99.90
54429;DHT22;40337;52.978;6.310;2023-10-19T02:57:15;8.90;99.90
54429;DHT22;40337;52.978;6.310;2023-10-19T02:59:41;8.90;99.90
54429;DHT22;40337;52.978;6.310;2023-10-19T03:02:06;8.90;99.90
54429;DHT22;40337;52.978;6.310;2023-10-19T03:04:41;8.90;99.90
54429;DHT22;40337;52.978;6.310;2023-10-19T03:07:09;8.90;99.90
54429;DHT22;40337;52.978;6.310;2023-10-19T03:09:35;8.90;99.90
54429;DHT22;40337;52.978;6.310;2023-10-19T03:12:21;8.90;99.90
54429;DHT22;40337;52.978;6.310;2023-10-19T03:14:50;8.90;99.90
54429;DHT22;40337;52.978;6.310;2023-10-19T03:17:16;9.00;99.90
54429;DHT22;40337;52.978;6.310;2023-10-19T03:19:42;9.00;99.90
54429;DHT22;40337;52.978;6.310;2023-10-19T03:22:07;9.00;99.90
54429;DHT22;40337;52.978;6.310;2023-10-19T03:24:34;9.00;99.90
54429;DHT22;40337;52.978;6.310;2023-10-19T03:27:09;9.00;99.90
54429;DHT22;40337;52.978;6.310;2023-10-19T03:29:42;9.00;99.90
54429;DHT22;40337;52.978;6.310;2023-10-19T03:32:19;9.00;99.90
54429;DHT22;40337;52.978;6.310;2023-10-19T03:34:52;9.00;99.90
54429;DHT22;40337;52.978;6.310;2023-10-19T03:37:24;9.00;99.90
54429;DHT22;40337;52.978;6.310;2023-10-19T03:39:51;9.00;99.90
54429;DHT22;40337;52.978;6.310;2023-10-19T03:42:17;9.00;99.90
54429;DHT22;40337;52.978;6.310;2023-10-19T03:44:43;9.00;99.90
54429;DHT22;40337;52.978;6.310;2023-10-19T03:47:11;9.00;99.90
54429;DHT22;40337;52.978;6.310;2023-10-19T03:49:38;9.00;99.90
54429;DHT22;40337;52.978;6.310;2023-10-19T03:52:05;9.00;99.90
54429;DHT22;40337;52.978;6.310;2023-10-19T03:54:34;9.10;99.90
54429;DHT22;40337;52.978;6.310;2023-10-19T03:57:04;9.10;99.90
54429;DHT22;40337;52.978;6.310;2023-10-19T03:59:32;9.10;99.90
54429;DHT22;40337;52.978;6.310;2023-10-19T04:02:00;9.10;99.90
54429;DHT22;40337;52.978;6.310;2023-10-19T04:04:26;9.10;99.90
54429;DHT22;40337;52.978;6.310;2023-10-19T04:06:55;9.10;99.90
54429;DHT22;40337;52.978;6.310;2023-10-19T04:09:24;9.10;99.90
54429;DHT22;40337;52.978;6.310;2023-10-19T04:11:57;9.10;99.90
54429;DHT22;40337;52.978;6.310;2023-10-19T04:14:23;9.20;99.90
54429;DHT22;40337;52.978;6.310;2023-10-19T04:16:48;9.20;99.90
54429;DHT22;40337;52.978;6.310;2023-10-19T04:19:15;9.10;99.90
54429;DHT22;40337;52.978;6.310;2023-10-19T04:21:42;9.20;99.90
54429;DHT22;40337;52.978;6.310;2023-10-19T04:24:12;9.20;99.90
54429;DHT22;40337;52.978;6.310;2023-10-19T04:26:39;9.20;99.90
54429;DHT22;40337;52.978;6.310;2023-10-19T04:29:05;9.10;99.90
54429;DHT22;40337;52.978;6.310;2023-10-19T04:31:42;9.20;99.90
54429;DHT22;40337;52.978;6.310;2023-10-19T04:34:21;9.20;99.90
54429;DHT22;40337;52.978;6.310;2023-10-19T04:36:50;9.20;99.90
54429;DHT22;40337;52.978;6.310;2023-10-19T04:39:18;9.20;99.90
54429;DHT22;40337;52.978;6.310;2023-10-19T04:41:46;9.20;99.90
54429;DHT22;40337;52.978;6.310;2023-10-19T04:44:14;9.20;99.90
54429;DHT22;40337;52.978;6.310;2023-10-19T04:46:41;9.20;99.90
54429;DHT22;40337;52.978;6.310;2023-10-19T04:49:07;9.20;99.90
54429;DHT22;40337;52.978;6.310;2023-10-19T04:51:32;9.30;99.90
54429;DHT22;40337;52.978;6.310;2023-10-19T04:53:59;9.20;99.90
54429;DHT22;40337;52.978;6.310;2023-10-19T04:56:25;9.30;99.90
54429;DHT22;40337;52.978;6.310;2023-10-19T04:58:51;9.20;99.90
54429;DHT22;40337;52.978;6.310;2023-10-19T05:01:16;9.30;99.90
54429;DHT22;40337;52.978;6.310;2023-10-19T05:03:42;9.30;99.90
54429;DHT22;40337;52.978;6.310;2023-10-19T05:06:08;9.30;99.90
54429;DHT22;40337;52.978;6.310;2023-10-19T05:08:35;9.30;99.90
54429;DHT22;40337;52.978;6.310;2023-10-19T05:11:02;9.30;99.90
54429;DHT22;40337;52.978;6.310;2023-10-19T05:13:29;9.30;99.90
54429;DHT22;40337;52.978;6.310;2023-10-19T05:15:55;9.30;99.90
54429;DHT22;40337;52.978;6.310;2023-10-19T05:18:22;9.30;99.90
54429;DHT22;40337;52.978;6.310;2023-10-19T05:20:48;9.30;99.90
54429;DHT22;40337;52.978;6.310;2023-10-19T05:23:15;9.40;99.90
54429;DHT22;40337;52.978;6.310;2023-10-19T05:25:40;9.30;99.90
54429;DHT22;40337;52.978;6.310;2023-10-19T05:28:07;9.40;99.90
54429;DHT22;40337;52.978;6.310;2023-10-19T05:30:33;9.40;99.90
54429;DHT22;40337;52.978;6.310;2023-10-19T05:32:59;9.40;99.90
54429;DHT22;40337;52.978;6.310;2023-10-19T05:35:27;9.40;99.90
54429;DHT22;40337;52.978;6.310;2023-10-19T05:37:53;9.40;99.90
54429;DHT22;40337;52.978;6.310;2023-10-19T05:40:24;9.40;99.90
54429;DHT22;40337;52.978;6.310;2023-10-19T05:42:56;9.40;99.90
54429;DHT22;40337;52.978;6.310;2023-10-19T05:45:22;9.40;99.90
54429;DHT22;40337;52.978;6.310;2023-10-19T05:47:48;9.40;99.90
54429;DHT22;40337;52.978;6.310;2023-10-19T05:50:13;9.40;99.90
54429;DHT22;40337;52.978;6.310;2023-10-19T05:52:43;9.50;99.90
54429;DHT22;40337;52.978;6.310;2023-10-19T05:55:09;9.40;99.90
54429;DHT22;40337;52.978;6.310;2023-10-19T05:57:37;9.40;99.90
54429;DHT22;40337;52.978;6.310;2023-10-19T06:00:10;9.40;99.90
54429;DHT22;40337;52.978;6.310;2023-10-19T06:02:41;9.50;99.90
54429;DHT22;40337;52.978;6.310;2023-10-19T06:05:09;9.40;99.90
54429;DHT22;40337;52.978;6.310;2023-10-19T06:07:34;9.40;99.90
54429;DHT22;40337;52.978;6.310;2023-10-19T06:10:00;9.50;99.90
54429;DHT22;40337;52.978;6.310;2023-10-19T06:12:30;9.50;99.90
54429;DHT22;40337;52.978;6.310;2023-10-19T06:14:56;9.40;99.90
54429;DHT22;40337;52.978;6.310;2023-10-19T06:17:22;9.50;99.90
54429;DHT22;40337;52.978;6.310;2023-10-19T06:19:48;9.50;99.90
54429;DHT22;40337;52.978;6.310;2023-10-19T06:22:14;9.40;99.90
54429;DHT22;40337;52.978;6.310;2023-10-19T06:24:41;9.50;99.90
54429;DHT22;40337;52.978;6.310;2023-10-19T06:27:09;9.50;99.90
54429;DHT22;40337;52.978;6.310;2023-10-19T06:29:35;9.50;99.90
54429;DHT22;40337;52.978;6.310;2023-10-19T06:32:00;9.50;99.90
54429;DHT22;40337;52.978;6.310;2023-10-19T06:34:26;9.50;99.90
54429;DHT22;40337;52.978;6.310;2023-10-19T06:36:52;9.50;99.90
54429;DHT22;40337;52.978;6.310;2023-10-19T06:39:19;9.50;99.90
54429;DHT22;40337;52.978;6.310;2023-10-19T06:41:46;9.60;99.90
54429;DHT22;40337;52.978;6.310;2023-10-19T06:44:13;9.60;99.90
54429;DHT22;40337;52.978;6.310;2023-10-19T06:46:39;9.60;99.90
54429;DHT22;40337;52.978;6.310;2023-10-19T06:49:05;9.60;99.90
54429;DHT22;40337;52.978;6.310;2023-10-19T06:51:31;9.60;99.90
54429;DHT22;40337;52.978;6.310;2023-10-19T06:53:57;9.70;99.90
54429;DHT22;40337;52.978;6.310;2023-10-19T06:56:23;9.70;99.90
54429;DHT22;40337;52.978;6.310;2023-10-19T06:58:49;9.60;99.90
54429;DHT22;40337;52.978;6.310;2023-10-19T07:01:15;9.70;99.90
54429;DHT22;40337;52.978;6.310;2023-10-19T07:03:42;9.70;99.90
54429;DHT22;40337;52.978;6.310;2023-10-19T07:06:08;9.70;99.90
54429;DHT22;40337;52.978;6.310;2023-10-19T07:08:41;9.70;99.90
54429;DHT22;40337;52.978;6.310;2023-10-19T07:11:07;9.70;99.90
54429;DHT22;40337;52.978;6.310;2023-10-19T07:13:33;9.70;99.90
54429;DHT22;40337;52.978;6.310;2023-10-19T07:15:59;9.70;99.90
54429;DHT22;40337;52.978;6.310;2023-10-19T07:18:25;9.70;99.90
54429;DHT22;40337;52.978;6.310;2023-10-19T07:20:51;9.70;99.90
54429;DHT22;40337;52.978;6.310;2023-10-19T07:23:18;9.70;99.90
54429;DHT22;40337;52.978;6.310;2023-10-19T07:25:46;9.80;99.90
54429;DHT22;40337;52.978;6.310;2023-10-19T07:28:14;9.80;99.90
54429;DHT22;40337;52.978;6.310;2023-10-19T07:30:41;9.80;99.90
54429;DHT22;40337;52.978;6.310;2023-10-19T07:33:07;9.80;99.90
54429;DHT22;40337;52.978;6.310;2023-10-19T07:35:36;9.80;99.90
54429;DHT22;40337;52.978;6.310;2023-10-19T07:38:04;9.80;99.90
54429;DHT22;40337;52.978;6.310;2023-10-19T07:40:32;9.80;99.90
54429;DHT22;40337;52.978;6.310;2023-10-19T07:42:58;9.80;99.90
54429;DHT22;40337;52.978;6.310;2023-10-19T07:45:25;9.80;99.90
54429;DHT22;40337;52.978;6.310;2023-10-19T07:47:50;9.80;99.90
54429;DHT22;40337;52.978;6.310;2023-10-19T07:50:16;9.80;99.90
54429;DHT22;40337;52.978;6.310;2023-10-19T07:52:51;9.90;99.90
54429;DHT22;40337;52.978;6.310;2023-10-19T07:55:22;9.80;99.90
54429;DHT22;40337;52.978;6.310;2023-10-19T07:57:51;9.90;99.90
54429;DHT22;40337;52.978;6.310;2023-10-19T08:00:17;9.90;99.90
54429;DHT22;40337;52.978;6.310;2023-10-19T08:02:44;9.80;99.90
54429;DHT22;40337;52.978;6.310;2023-10-19T08:05:17;9.90;99.90
54429;DHT22;40337;52.978;6.310;2023-10-19T08:07:46;9.90;99.90
54429;DHT22;40337;52.978;6.310;2023-10-19T08:10:16;9.90;99.90
54429;DHT22;40337;52.978;6.310;2023-10-19T08:12:43;10.00;99.90
54429;DHT22;40337;52.978;6.310;2023-10-19T08:15:11;10.00;99.90
54429;DHT22;40337;52.978;6.310;2023-10-19T08:17:46;10.00;99.90
54429;DHT22;40337;52.978;6.310;2023-10-19T08:20:15;10.10;99.90
54429;DHT22;40337;52.978;6.310;2023-10-19T08:22:56;10.10;99.90
54429;DHT22;40337;52.978;6.310;2023-10-19T08:25:23;10.10;99.90
54429;DHT22;40337;52.978;6.310;2023-10-19T08:27:49;10.10;99.90
54429;DHT22;40337;52.978;6.310;2023-10-19T08:30:21;10.20;99.90
54429;DHT22;40337;52.978;6.310;2023-10-19T08:32:48;10.20;99.90
54429;DHT22;40337;52.978;6.310;2023-10-19T08:35:15;10.20;99.90
54429;DHT22;40337;52.978;6.310;2023-10-19T08:37:43;10.30;99.90
54429;DHT22;40337;52.978;6.310;2023-10-19T08:40:12;10.20;99.90
54429;DHT22;40337;52.978;6.310;2023-10-19T08:42:43;10.20;99.90
54429;DHT22;40337;52.978;6.310;2023-10-19T08:45:11;10.30;99.90
54429;DHT22;40337;52.978;6.310;2023-10-19T08:47:48;10.30;99.90
54429;DHT22;40337;52.978;6.310;2023-10-19T08:50:14;10.30;99.90
54429;DHT22;40337;52.978;6.310;2023-10-19T08:52:41;10.30;99.90
54429;DHT22;40337;52.978;6.310;2023-10-19T08:55:08;10.30;99.90
54429;DHT22;40337;52.978;6.310;2023-10-19T08:57:39;10.40;99.90
54429;DHT22;40337;52.978;6.310;2023-10-19T09:00:05;10.40;99.90
54429;DHT22;40337;52.978;6.310;2023-10-19T09:02:32;10.40;99.90
54429;DHT22;40337;52.978;6.310;2023-10-19T09:04:58;10.50;99.90
54429;DHT22;40337;52.978;6.310;2023-10-19T09:07:25;10.50;99.90
54429;DHT22;40337;52.978;6.310;2023-10-19T09:09:56;10.50;99.90
54429;DHT22;40337;52.978;6.310;2023-10-19T09:12:22;10.60;99.90
54429;DHT22;40337;52.978;6.310;2023-10-19T09:14:48;10.60;99.90
54429;DHT22;40337;52.978;6.310;2023-10-19T09:17:15;10.70;99.90
54429;DHT22;40337;52.978;6.310;2023-10-19T09:19:44;10.60;99.90
54429;DHT22;40337;52.978;6.310;2023-10-19T09:22:13;10.60;99.90
54429;DHT22;40337;52.978;6.310;2023-10-19T09:24:46;10.70;99.90
54429;DHT22;40337;52.978;6.310;2023-10-19T09:27:12;10.70;99.90
54429;DHT22;40337;52.978;6.310;2023-10-19T09:29:39;10.70;99.90
54429;DHT22;40337;52.978;6.310;2023-10-19T09:32:07;10.70;99.90
54429;DHT22;40337;52.978;6.310;2023-10-19T09:34:34;10.70;99.90
54429;DHT22;40337;52.978;6.310;2023-10-19T09:37:00;10.80;99.90
54429;DHT22;40337;52.978;6.310;2023-10-19T09:39:29;10.80;99.90
54429;DHT22;40337;52.978;6.310;2023-10-19T09:42:08;10.80;99.90
54429;DHT22;40337;52.978;6.310;2023-10-19T09:44:42;10.80;99.90
54429;DHT22;40337;52.978;6.310;2023-10-19T09:47:33;10.80;99.90
54429;DHT22;40337;52.978;6.310;2023-10-19T09:50:01;10.80;99.90
54429;DHT22;40337;52.978;6.310;2023-10-19T09:52:27;10.80;99.90
54429;DHT22;40337;52.978;6.310;2023-10-19T09:55:19;10.80;99.90
54429;DHT22;40337;52.978;6.310;2023-10-19T09:58:25;10.90;99.90
54429;DHT22;40337;52.978;6.310;2023-10-19T10:00:44;10.90;99.90
54429;DHT22;40337;52.978;6.310;2023-10-19T10:03:49;10.90;99.90
54429;DHT22;40337;52.978;6.310;2023-10-19T10:06:16;10.90;99.90
54429;DHT22;40337;52.978;6.310;2023-10-19T10:08:46;10.90;99.90
54429;DHT22;40337;52.978;6.310;2023-10-19T10:13:44;10.90;99.90
54429;DHT22;40337;52.978;6.310;2023-10-19T10:16:17;10.90;99.90
54429;DHT22;40337;52.978;6.310;2023-10-19T10:18:43;10.90;99.90
54429;DHT22;40337;52.978;6.310;2023-10-19T10:21:12;11.00;99.90
54429;DHT22;40337;52.978;6.310;2023-10-19T10:23:47;11.00;99.90
54429;DHT22;40337;52.978;6.310;2023-10-19T10:26:13;11.00;99.90
54429;DHT22;40337;52.978;6.310;2023-10-19T10:28:40;11.00;99.90
54429;DHT22;40337;52.978;6.310;2023-10-19T10:31:11;11.10;99.90
54429;DHT22;40337;52.978;6.310;2023-10-19T10:33:41;11.10;99.90
54429;DHT22;40337;52.978;6.310;2023-10-19T10:36:07;11.20;99.90
54429;DHT22;40337;52.978;6.310;2023-10-19T10:38:34;11.10;99.90
54429;DHT22;40337;52.978;6.310;2023-10-19T10:41:04;11.20;99.90
54429;DHT22;40337;52.978;6.310;2023-10-19T10:43:29;11.30;99.90
54429;DHT22;40337;52.978;6.310;2023-10-19T10:46:07;11.30;99.90
54429;DHT22;40337;52.978;6.310;2023-10-19T10:48:33;11.40;99.90
54429;DHT22;40337;52.978;6.310;2023-10-19T10:51:01;11.40;99.90
54429;DHT22;40337;52.978;6.310;2023-10-19T10:53:27;11.40;99.90
54429;DHT22;40337;52.978;6.310;2023-10-19T10:56:00;11.50;99.90
54429;DHT22;40337;52.978;6.310;2023-10-19T10:58:26;11.50;99.90
54429;DHT22;40337;52.978;6.310;2023-10-19T11:00:51;11.50;99.90
54429;DHT22;40337;52.978;6.310;2023-10-19T11:03:17;11.50;99.90
54429;DHT22;40337;52.978;6.310;2023-10-19T11:05:43;11.50;99.90
54429;DHT22;40337;52.978;6.310;2023-10-19T11:08:14;11.50;99.90
54429;DHT22;40337;52.978;6.310;2023-10-19T11:10:46;11.50;99.90
54429;DHT22;40337;52.978;6.310;2023-10-19T11:13:14;11.50;99.90
54429;DHT22;40337;52.978;6.310;2023-10-19T11:15:48;11.60;99.90
54429;DHT22;40337;52.978;6.310;2023-10-19T11:20:57;11.70;99.90
54429;DHT22;40337;52.978;6.310;2023-10-19T11:26:06;11.60;99.90
54429;DHT22;40337;52.978;6.310;2023-10-19T11:28:33;11.70;99.90
54429;DHT22;40337;52.978;6.310;2023-10-19T11:31:22;11.70;99.90
54429;DHT22;40337;52.978;6.310;2023-10-19T11:33:50;11.70;99.90
54429;DHT22;40337;52.978;6.310;2023-10-19T11:36:17;11.70;99.90
54429;DHT22;40337;52.978;6.310;2023-10-19T11:38:44;11.80;99.90
54429;DHT22;40337;52.978;6.310;2023-10-19T11:41:11;11.90;99.90
54429;DHT22;40337;52.978;6.310;2023-10-19T11:43:42;12.00;99.90
54429;DHT22;40337;52.978;6.310;2023-10-19T11:46:09;12.00;99.90
54429;DHT22;40337;52.978;6.310;2023-10-19T11:48:36;12.10;99.90
54429;DHT22;40337;52.978;6.310;2023-10-19T11:51:03;12.20;99.90
54429;DHT22;40337;52.978;6.310;2023-10-19T11:53:33;12.30;99.90
54429;DHT22;40337;52.978;6.310;2023-10-19T11:56:01;12.30;99.90
54429;DHT22;40337;52.978;6.310;2023-10-19T11:58:27;12.30;99.90
54429;DHT22;40337;52.978;6.310;2023-10-19T12:00:54;12.30;99.90
54429;DHT22;40337;52.978;6.310;2023-10-19T12:03:20;12.30;99.90
54429;DHT22;40337;52.978;6.310;2023-10-19T12:05:46;12.40;99.90
54429;DHT22;40337;52.978;6.310;2023-10-19T12:08:11;12.40;99.90
54429;DHT22;40337;52.978;6.310;2023-10-19T12:10:37;12.40;99.90
54429;DHT22;40337;52.978;6.310;2023-10-19T12:13:04;12.40;99.90
54429;DHT22;40337;52.978;6.310;2023-10-19T12:15:31;12.40;99.90
54429;DHT22;40337;52.978;6.310;2023-10-19T12:17:58;12.40;99.90
54429;DHT22;40337;52.978;6.310;2023-10-19T12:20:23;12.40;99.90
54429;DHT22;40337;52.978;6.310;2023-10-19T12:22:49;12.30;99.90
54429;DHT22;40337;52.978;6.310;2023-10-19T12:25:20;12.30;99.90
54429;DHT22;40337;52.978;6.310;2023-10-19T12:27:46;12.30;99.90
54429;DHT22;40337;52.978;6.310;2023-10-19T12:30:12;12.20;99.90
54429;DHT22;40337;52.978;6.310;2023-10-19T12:32:50;12.20;99.90
54429;DHT22;40337;52.978;6.310;2023-10-19T12:35:16;12.20;99.90
54429;DHT22;40337;52.978;6.310;2023-10-19T12:37:45;12.10;99.90
54429;DHT22;40337;52.978;6.310;2023-10-19T12:40:15;12.10;99.90
54429;DHT22;40337;52.978;6.310;2023-10-19T12:42:54;12.10;99.90
54429;DHT22;40337;52.978;6.310;2023-10-19T12:45:24;12.00;99.90
54429;DHT22;40337;52.978;6.310;2023-10-19T12:47:50;12.10;99.90
54429;DHT22;40337;52.978;6.310;2023-10-19T12:50:18;12.10;99.90
54429;DHT22;40337;52.978;6.310;2023-10-19T12:52:49;12.10;99.90
54429;DHT22;40337;52.978;6.310;2023-10-19T12:55:16;12.00;99.90
54429;DHT22;40337;52.978;6.310;2023-10-19T12:57:42;12.00;99.90
54429;DHT22;40337;52.978;6.310;2023-10-19T13:00:08;12.00;99.90
54429;DHT22;40337;52.978;6.310;2023-10-19T13:02:55;12.00;99.90
54429;DHT22;40337;52.978;6.310;2023-10-19T13:05:27;12.00;99.90
54429;DHT22;40337;52.978;6.310;2023-10-19T13:07:53;12.00;99.90
54429;DHT22;40337;52.978;6.310;2023-10-19T13:10:30;11.90;99.90
54429;DHT22;40337;52.978;6.310;2023-10-19T13:13:01;11.90;99.90
54429;DHT22;40337;52.978;6.310;2023-10-19T13:15:30;11.90;99.90
54429;DHT22;40337;52.978;6.310;2023-10-19T13:17:57;11.90;99.90
54429;DHT22;40337;52.978;6.310;2023-10-19T13:20:24;11.80;99.90
54429;DHT22;40337;52.978;6.310;2023-10-19T13:22:51;11.80;99.90
54429;DHT22;40337;52.978;6.310;2023-10-19T13:25:17;11.80;99.90
54429;DHT22;40337;52.978;6.310;2023-10-19T13:27:44;11.80;99.90
54429;DHT22;40337;52.978;6.310;2023-10-19T13:30:11;11.80;99.90
54429;DHT22;40337;52.978;6.310;2023-10-19T13:32:40;11.80;99.90
54429;DHT22;40337;52.978;6.310;2023-10-19T13:35:07;11.80;99.90
54429;DHT22;40337;52.978;6.310;2023-10-19T13:37:33;11.80;99.90
54429;DHT22;40337;52.978;6.310;2023-10-19T13:39:59;11.80;99.90
54429;DHT22;40337;52.978;6.310;2023-10-19T13:42:24;11.80;99.90
54429;DHT22;40337;52.978;6.310;2023-10-19T13:44:50;11.80;99.90
54429;DHT22;40337;52.978;6.310;2023-10-19T13:47:16;11.80;99.90
54429;DHT22;40337;52.978;6.310;2023-10-19T13:49:41;11.80;99.90
54429;DHT22;40337;52.978;6.310;2023-10-19T13:52:07;11.80;99.90
54429;DHT22;40337;52.978;6.310;2023-10-19T13:54:36;11.70;99.90
54429;DHT22;40337;52.978;6.310;2023-10-19T13:57:03;11.70;99.90
54429;DHT22;40337;52.978;6.310;2023-10-19T13:59:29;11.70;99.90
54429;DHT22;40337;52.978;6.310;2023-10-19T14:01:55;11.70;99.90
54429;DHT22;40337;52.978;6.310;2023-10-19T14:04:20;11.70;99.90
54429;DHT22;40337;52.978;6.310;2023-10-19T14:06:46;11.70;99.90
54429;DHT22;40337;52.978;6.310;2023-10-19T14:09:15;11.70;99.90
54429;DHT22;40337;52.978;6.310;2023-10-19T14:11:42;11.70;99.90
54429;DHT22;40337;52.978;6.310;2023-10-19T14:14:08;11.60;99.90
54429;DHT22;40337;52.978;6.310;2023-10-19T14:16:36;11.60;99.90
54429;DHT22;40337;52.978;6.310;2023-10-19T14:19:01;11.60;99.90
54429;DHT22;40337;52.978;6.310;2023-10-19T14:21:28;11.60;99.90
54429;DHT22;40337;52.978;6.310;2023-10-19T14:23:55;11.60;99.90
54429;DHT22;40337;52.978;6.310;2023-10-19T14:26:20;11.50;99.90
54429;DHT22;40337;52.978;6.310;2023-10-19T14:28:46;11.50;99.90
54429;DHT22;40337;52.978;6.310;2023-10-19T14:31:12;11.60;99.90
54429;DHT22;40337;52.978;6.310;2023-10-19T14:33:39;11.60;99.90
54429;DHT22;40337;52.978;6.310;2023-10-19T14:36:05;11.50;99.90
54429;DHT22;40337;52.978;6.310;2023-10-19T14:38:30;11.50;99.90
54429;DHT22;40337;52.978;6.310;2023-10-19T14:40:56;11.50;99.90
54429;DHT22;40337;52.978;6.310;2023-10-19T14:43:23;11.50;99.90
54429;DHT22;40337;52.978;6.310;2023-10-19T14:45:51;11.50;99.90
54429;DHT22;40337;52.978;6.310;2023-10-19T14:48:16;11.50;99.90
54429;DHT22;40337;52.978;6.310;2023-10-19T14:50:44;11.50;99.90
54429;DHT22;40337;52.978;6.310;2023-10-19T14:53:10;11.50;99.90
54429;DHT22;40337;52.978;6.310;2023-10-19T14:55:36;11.50;99.90
54429;DHT22;40337;52.978;6.310;2023-10-19T14:58:01;11.40;99.90
54429;DHT22;40337;52.978;6.310;2023-10-19T15:00:28;11.50;99.90
54429;DHT22;40337;52.978;6.310;2023-10-19T15:03:02;11.40;99.90
54429;DHT22;40337;52.978;6.310;2023-10-19T15:05:32;11.40;99.90
54429;DHT22;40337;52.978;6.310;2023-10-19T15:08:01;11.40;99.90
54429;DHT22;40337;52.978;6.310;2023-10-19T15:10:28;11.40;99.90
54429;DHT22;40337;52.978;6.310;2023-10-19T15:12:54;11.40;99.90
54429;DHT22;40337;52.978;6.310;2023-10-19T15:15:22;11.30;99.90
54429;DHT22;40337;52.978;6.310;2023-10-19T15:17:48;11.40;99.90
54429;DHT22;40337;52.978;6.310;2023-10-19T15:20:16;11.30;99.90
54429;DHT22;40337;52.978;6.310;2023-10-19T15:22:42;11.30;99.90
54429;DHT22;40337;52.978;6.310;2023-10-19T15:25:09;11.30;99.90
54429;DHT22;40337;52.978;6.310;2023-10-19T15:27:37;11.30;99.90
54429;DHT22;40337;52.978;6.310;2023-10-19T15:30:04;11.20;99.90
54429;DHT22;40337;52.978;6.310;2023-10-19T15:32:34;11.30;99.90
54429;DHT22;40337;52.978;6.310;2023-10-19T15:35:01;11.30;99.90
54429;DHT22;40337;52.978;6.310;2023-10-19T15:37:27;11.20;99.90
54429;DHT22;40337;52.978;6.310;2023-10-19T15:39:53;11.20;99.90
54429;DHT22;40337;52.978;6.310;2023-10-19T15:42:19;11.10;99.90
54429;DHT22;40337;52.978;6.310;2023-10-19T15:44:47;11.10;99.90
54429;DHT22;40337;52.978;6.310;2023-10-19T15:47:13;11.10;99.90
54429;DHT22;40337;52.978;6.310;2023-10-19T15:49:50;11.10;99.90
54429;DHT22;40337;52.978;6.310;2023-10-19T15:52:19;11.10;99.90
54429;DHT22;40337;52.978;6.310;2023-10-19T15:54:45;11.00;99.90
54429;DHT22;40337;52.978;6.310;2023-10-19T15:57:11;11.10;99.90